Time;durP1;ratioP1;P1;durP2;ratioP2;P2;SDS_P1;SDS_P2;PMS_P1;PMS_P2;Temp;Humidity;BMP_temperature;BMP_pressure;BME280_temperature;BME280_humidity;BME280_pressure;Samples;Min_cycle;Max_cycle;Signal;HPM_P1;HPM_P2
2022/08/28 00:00:55;;;;;;;13.63;8.33;;;;;;;17.68;83.60;97391.34;10291687;28;20423;-56
2022/08/28 00:05:54;;;;;;;17.15;9.07;;;;;;;17.63;83.77;97395.03;10289697;28;20061;-57
2022/08/28 00:10:53;;;;;;;13.38;9.27;;;;;;;17.47;84.57;97399.94;10291838;28;20092;-57
2022/08/28 00:15:56;;;;;;;16.52;9.55;;;;;;;17.34;85.40;97400.38;10329296;28;20108;-57
2022/08/28 00:20:57;;;;;;;17.83;9.45;;;;;;;17.29;85.39;97397.06;10332026;28;20079;-57
2022/08/28 00:25:56;;;;;;;15.43;9.07;;;;;;;17.25;86.10;97400.69;10333951;28;20072;-57
2022/08/28 00:30:57;;;;;;;18.67;9.95;;;;;;;17.20;86.03;97394.75;10340016;28;20051;-56
2022/08/28 00:35:56;;;;;;;15.52;10.30;;;;;;;17.22;86.21;97395.56;10339826;28;20087;-57
2022/08/28 00:40:59;;;;;;;19.70;9.73;;;;;;;17.21;86.00;97398.22;10301699;28;20069;-56
2022/08/28 00:46:00;;;;;;;16.27;9.95;;;;;;;17.21;86.01;97393.81;10297961;28;20077;-57
2022/08/28 00:56:18;;;;;;;17.33;8.35;;;;;;;17.09;85.06;97400.31;10295259;28;20069;-57
2022/08/28 01:01:18;;;;;;;16.08;9.38;;;;;;;17.01;86.64;97391.03;10295299;28;20065;-57
2022/08/28 01:06:19;;;;;;;16.00;9.65;;;;;;;17.02;86.78;97404.06;10295231;28;20582;-57
2022/08/28 01:11:19;;;;;;;22.40;10.07;;;;;;;16.97;86.49;97394.63;10292851;28;20487;-57
2022/08/28 01:16:21;;;;;;;19.15;10.55;;;;;;;16.93;86.38;97394.75;10324665;28;20481;-57
2022/08/28 01:21:35;;;;;;;22.48;10.15;;;;;;;16.97;86.15;97394.63;10335756;28;20127;-57
2022/08/28 01:26:34;;;;;;;15.18;9.70;;;;;;;16.82;86.86;97380.28;10334912;28;20073;-56
2022/08/28 01:31:34;;;;;;;13.02;8.82;;;;;;;16.69;88.39;97393.72;10334464;28;20514;-57
2022/08/28 01:36:34;;;;;;;14.27;8.88;;;;;;;16.60;88.97;97401.00;10334491;28;20065;-57
2022/08/28 01:41:36;;;;;;;19.13;9.98;;;;;;;16.52;89.01;97396.84;10306116;28;20057;-57
2022/08/28 01:46:35;;;;;;;16.95;10.50;;;;;;;16.45;88.86;97390.09;10293035;28;20085;-57
2022/08/28 01:51:35;;;;;;;15.98;10.13;;;;;;;16.35;89.43;97383.44;10293792;28;20487;-57
2022/08/28 01:56:34;;;;;;;18.60;10.27;;;;;;;16.19;89.68;97379.56;10293111;28;20842;-56
2022/08/28 02:01:33;;;;;;;16.15;10.18;;;;;;;16.28;89.50;97392.38;10293018;28;20094;-56
2022/08/28 02:06:32;;;;;;;15.98;10.45;;;;;;;16.24;89.54;97394.22;10292386;28;20493;-56
2022/08/28 02:11:31;;;;;;;15.60;10.57;;;;;;;16.21;89.25;97390.84;10290714;28;20080;-57
2022/08/28 02:16:30;;;;;;;;;;;;;;;16.16;89.43;97384.84;10332760;28;20068;-56
2022/08/28 02:21:29;;;;;;;17.17;10.27;;;;;;;16.12;89.46;97398.97;10333598;28;19912;-57
2022/08/28 02:26:30;;;;;;;20.35;10.27;;;;;;;16.03;90.31;97393.06;10332553;28;20068;-57
2022/08/28 02:31:29;;;;;;;17.90;10.55;;;;;;;15.96;90.66;97395.91;10332523;28;20076;-56
2022/08/28 02:36:29;;;;;;;21.55;10.82;;;;;;;15.94;90.55;97400.34;10332205;28;20077;-56
2022/08/28 02:41:28;;;;;;;18.13;10.77;;;;;;;15.88;91.11;97397.00;10315026;28;20088;-56
2022/08/28 02:46:27;;;;;;;;;;;;;;;15.87;90.91;97394.41;10292587;28;20081;-57
2022/08/28 02:51:29;;;;;;;17.00;11.80;;;;;;;15.84;91.04;97392.75;10294712;28;19959;-57
2022/08/28 02:56:29;;;;;;;17.90;11.10;;;;;;;15.84;90.67;97397.13;10293949;28;20072;-57
2022/08/28 03:01:28;;;;;;;16.85;10.18;;;;;;;15.84;90.78;97399.75;10294479;28;20081;-56
2022/08/28 03:06:31;;;;;;;;;;;;;;;15.81;90.98;97403.31;10293896;28;20061;-57
2022/08/28 03:11:30;;;;;;;20.65;10.65;;;;;;;15.79;90.58;97405.09;10291180;28;20438;-57
2022/08/28 03:16:31;;;;;;;21.70;11.13;;;;;;;15.78;90.42;97412.94;10332815;28;20104;-57
2022/08/28 03:21:30;;;;;;;18.73;10.57;;;;;;;15.82;90.84;97409.38;10334906;28;20573;-57
2022/08/28 03:26:29;;;;;;;;;;;;;;;15.75;91.40;97418.28;10333812;28;20076;-56
2022/08/28 03:31:31;;;;;;;14.43;9.73;;;;;;;15.68;91.58;97421.03;10334015;28;19913;-57
2022/08/28 03:36:31;;;;;;;22.05;11.10;;;;;;;15.57;91.65;97417.84;10333096;28;20072;-56
2022/08/28 03:41:31;;;;;;;16.92;10.48;;;;;;;15.23;93.69;97423.94;10332668;28;20069;-57
2022/08/28 03:46:32;;;;;;;18.38;10.77;;;;;;;15.13;94.03;97432.03;10289846;28;20511;-56
2022/08/28 03:51:33;;;;;;;21.50;10.82;;;;;;;15.15;93.56;97436.34;10288989;28;20561;-57
2022/08/28 03:56:32;;;;;;;16.83;11.38;;;;;;;15.21;93.61;97433.59;10289241;28;20069;-57
2022/08/28 04:01:32;;;;;;;19.15;11.73;;;;;;;15.26;93.79;97433.47;10289064;28;20065;-56
2022/08/28 04:06:31;;;;;;;17.20;11.40;;;;;;;15.31;93.65;97438.59;10287982;28;20142;-57
2022/08/28 04:11:30;;;;;;;17.98;11.77;;;;;;;15.37;93.70;97449.75;10288151;28;20113;-56
2022/08/28 04:16:30;;;;;;;19.05;11.77;;;;;;;15.28;94.22;97452.59;10287738;28;20069;-57
2022/08/28 04:21:30;;;;;;;21.27;12.55;;;;;;;15.32;94.08;97456.84;10252566;28;20128;-56
2022/08/28 04:26:29;;;;;;;19.67;12.32;;;;;;;15.40;93.88;97451.44;10249515;28;20069;-56
2022/08/28 04:31:28;;;;;;;18.23;12.25;;;;;;;15.45;94.28;97458.25;10288226;28;20085;-56
2022/08/28 04:36:28;;;;;;;17.05;12.93;;;;;;;15.54;94.23;97459.78;10288036;28;20069;-56
2022/08/28 04:41:28;;;;;;;18.95;13.23;;;;;;;15.60;93.94;97470.09;10288099;28;20108;-56
2022/08/28 04:46:27;;;;;;;19.73;12.43;;;;;;;15.65;94.23;97476.06;10285605;28;20069;-56
2022/08/28 04:51:26;;;;;;;;;;;;;;;15.78;93.68;97475.72;10288069;28;20065;-57
2022/08/28 04:56:26;;;;;;;17.93;11.60;;;;;;;15.94;93.24;97479.69;10288154;28;19964;-57
2022/08/28 05:01:25;;;;;;;16.25;11.40;;;;;;;16.09;92.66;97474.06;10287185;28;20695;-56
2022/08/28 05:06:27;;;;;;;19.95;11.82;;;;;;;16.32;92.39;97479.53;10287665;28;20061;-57
2022/08/28 05:11:29;;;;;;;17.25;10.95;;;;;;;16.53;91.63;97484.16;10287141;28;20081;-57
2022/08/28 05:16:28;;;;;;;25.13;10.77;;;;;;;16.72;91.30;97481.84;10310407;28;20093;-57
2022/08/28 05:21:27;;;;;;;;;;;;;;;16.93;90.54;97473.38;10295473;28;20061;-57
2022/08/28 05:26:26;;;;;;;17.20;10.53;;;;;;;17.12;89.54;97481.53;10294543;28;19909;-57
2022/08/28 05:31:27;;;;;;;17.13;10.85;;;;;;;17.31;88.77;97484.41;10293816;28;20074;-57
2022/08/28 05:36:30;;;;;;;13.95;9.60;;;;;;;17.51;87.56;97482.91;10295061;28;20080;-57
2022/08/28 05:41:30;;;;;;;21.02;10.82;;;;;;;17.71;86.24;97483.09;10293706;28;20480;-57
2022/08/28 05:46:30;;;;;;;16.23;9.90;;;;;;;17.88;85.08;97485.16;10293001;28;20080;-57
2022/08/28 05:51:30;;;;;;;17.83;10.23;;;;;;;18.11;83.92;97486.13;10288371;28;20488;-57
2022/08/28 05:56:32;;;;;;;20.85;10.88;;;;;;;18.32;83.08;97493.22;10278025;28;20232;-57
2022/08/28 06:01:41;;;;;;;19.27;10.32;;;;;;;18.53;82.49;97493.38;10358329;28;20072;-57
2022/08/28 06:06:41;;;;;;;14.20;10.93;;;;;;;18.68;81.49;97492.81;10375900;28;20053;-57
2022/08/28 06:11:42;;;;;;;17.55;11.05;;;;;;;18.89;81.47;97491.13;10371281;28;20067;-57
2022/08/28 06:16:44;;;;;;;15.65;10.68;;;;;;;19.07;80.46;97491.34;10333448;28;20060;-57
2022/08/28 06:21:45;;;;;;;17.70;10.00;;;;;;;19.24;79.31;97481.00;10330265;28;20529;-57
2022/08/28 06:26:44;;;;;;;18.42;10.30;;;;;;;19.41;79.45;97485.56;10326476;28;20096;-57
2022/08/28 06:31:44;;;;;;;18.83;10.73;;;;;;;19.62;78.59;97478.59;10330696;28;20068;-57
2022/08/28 06:36:43;;;;;;;18.90;11.27;;;;;;;19.78;77.08;97487.56;10331154;28;20108;-56
2022/08/28 06:41:42;;;;;;;19.48;11.05;;;;;;;20.00;76.22;97486.63;10331618;28;20088;-56
2022/08/28 06:46:41;;;;;;;15.40;10.48;;;;;;;20.20;76.20;97489.25;10331661;28;20073;-56
2022/08/28 06:51:40;;;;;;;15.15;10.27;;;;;;;20.33;74.33;97488.72;10331084;28;20033;-56
2022/08/28 06:56:39;;;;;;;16.30;9.82;;;;;;;20.61;73.65;97483.97;10330674;28;20502;-56
2022/08/28 07:01:38;;;;;;;14.77;9.10;;;;;;;20.83;72.27;97482.97;10330960;28;20515;-57
2022/08/28 07:06:42;;;;;;;17.35;9.93;;;;;;;21.03;69.70;97482.88;10330789;28;20512;-57
2022/08/28 07:11:45;;;;;;;15.77;8.65;;;;;;;21.29;69.07;97478.19;10325168;28;20069;-57
2022/08/28 07:16:44;;;;;;;17.15;9.68;;;;;;;21.44;68.23;97469.50;10325941;28;20077;-57
2022/08/28 07:21:44;;;;;;;18.98;9.15;;;;;;;21.73;67.14;97477.72;10316869;28;20075;-57
2022/08/28 07:26:45;;;;;;;20.75;10.10;;;;;;;21.94;66.44;97467.84;10331787;28;20061;-57
2022/08/28 07:31:47;;;;;;;18.15;8.35;;;;;;;22.12;64.32;97474.88;10328893;28;20455;-57
2022/08/28 07:36:47;;;;;;;15.73;8.13;;;;;;;22.49;61.42;97464.16;10327837;28;20061;-57
2022/08/28 07:41:46;;;;;;;14.93;8.60;;;;;;;22.78;58.95;97457.28;10325390;28;20511;-56
2022/08/28 07:46:45;;;;;;;18.45;9.15;;;;;;;23.11;57.55;97461.66;10330315;28;20080;-56
2022/08/28 07:51:44;;;;;;;14.23;8.60;;;;;;;23.40;56.24;97458.19;10330527;28;20060;-56
2022/08/28 07:56:44;;;;;;;17.48;8.05;;;;;;;23.67;55.92;97451.41;10329853;28;20048;-56
2022/08/28 08:01:45;;;;;;;17.80;7.20;;;;;;;23.91;52.92;97449.09;10329835;28;20061;-56
2022/08/28 08:06:45;;;;;;;15.35;8.00;;;;;;;24.25;53.08;97451.44;10332788;28;20468;-55
2022/08/28 08:11:45;;;;;;;19.02;7.88;;;;;;;24.59;52.29;97446.72;10331483;28;20084;-55
2022/08/28 08:16:46;;;;;;;13.32;7.35;;;;;;;24.81;51.25;97429.44;10329617;28;20475;-55
2022/08/28 08:21:47;;;;;;;14.65;6.80;;;;;;;25.06;50.62;97426.94;10331925;28;20072;-56
2022/08/28 08:26:47;;;;;;;13.73;6.60;;;;;;;25.39;49.92;97427.47;10332669;28;20065;-56
2022/08/28 08:31:56;;;;;;;11.05;5.53;;;;;;;25.70;47.71;97426.28;10331599;28;20057;-55
2022/08/28 08:36:56;;;;;;;21.38;8.27;;;;;;;26.01;46.92;97426.84;10332141;28;20076;-56
2022/08/28 08:41:57;;;;;;;18.35;7.53;;;;;;;26.29;45.77;97433.81;10331687;28;20061;-56
2022/08/28 08:47:09;;;;;;;17.38;7.38;;;;;;;26.57;45.07;97436.22;10328483;28;20072;-56
2022/08/28 08:52:10;;;;;;;14.60;6.75;;;;;;;26.91;45.35;97424.97;10335756;28;20491;-56
2022/08/28 08:57:12;;;;;;;13.45;6.07;;;;;;;27.07;45.57;97428.22;10336304;28;20057;-56
2022/08/28 09:02:17;;;;;;;21.50;7.53;;;;;;;27.38;44.47;97421.47;10336037;28;20072;-56
2022/08/28 09:07:23;;;;;;;13.73;6.65;;;;;;;27.61;43.80;97422.47;10335248;28;20069;-56
2022/08/28 09:12:48;;;;;;;23.60;7.05;;;;;;;27.82;43.15;97416.44;10335699;28;20176;-56
2022/08/28 09:18:05;;;;;;;17.10;9.20;;;;;;;28.06;41.48;97411.03;10333966;28;20506;-56
2022/08/28 09:23:05;;;;;;;17.73;7.65;;;;;;;28.21;39.07;97417.88;10335042;28;20064;-56
2022/08/28 09:28:08;;;;;;;14.05;6.20;;;;;;;28.64;39.37;97414.47;10335823;28;20491;-56
2022/08/28 09:33:07;;;;;;;12.65;5.15;;;;;;;28.78;35.57;97405.41;10334463;28;20061;-57
2022/08/28 09:38:18;;;;;;;13.30;5.40;;;;;;;29.17;36.25;97415.63;10333066;28;20080;-57
2022/08/28 09:43:27;;;;;;;15.13;6.18;;;;;;;29.28;34.53;97396.91;10334654;28;20081;-57
2022/08/28 09:48:28;;;;;;;14.30;5.15;;;;;;;29.53;33.70;97403.69;10331711;28;20088;-55
2022/08/28 09:53:35;;;;;;;11.45;6.03;;;;;;;29.79;31.96;97396.19;10333926;28;20061;-56
2022/08/28 09:58:38;;;;;;;12.80;5.55;;;;;;;30.01;30.49;97384.50;10332930;28;20061;-55
2022/08/28 10:04:04;;;;;;;11.38;5.85;;;;;;;30.26;31.73;97390.41;10335623;28;20076;-57
2022/08/28 10:09:08;;;;;;;10.93;6.18;;;;;;;30.25;30.27;97386.88;10334029;28;20076;-56
2022/08/28 10:14:40;;;;;;;10.40;5.95;;;;;;;30.25;29.98;97386.03;10335422;28;20061;-57
2022/08/28 10:19:51;;;;;;;10.38;5.47;;;;;;;30.31;29.54;97378.31;10332766;28;20479;-57
2022/08/28 10:24:56;;;;;;;11.68;5.90;;;;;;;30.41;30.11;97372.19;10335748;28;20083;-57
2022/08/28 10:30:09;;;;;;;10.38;5.90;;;;;;;30.47;30.33;97368.97;10335624;28;20052;-57
2022/08/28 10:35:16;;;;;;;10.50;5.57;;;;;;;30.56;30.78;97378.84;10335242;28;20069;-56
2022/08/28 10:40:34;;;;;;;12.00;5.95;;;;;;;30.67;28.94;97365.34;10334803;28;20574;-57
2022/08/28 10:45:33;;;;;;;11.88;6.03;;;;;;;31.02;29.42;97363.19;10334813;28;20089;-56
2022/08/28 10:51:01;;;;;;;9.48;5.20;;;;;;;30.96;28.91;97353.91;10334788;28;20061;-57
2022/08/28 10:56:06;;;;;;;14.27;5.77;;;;;;;31.11;27.96;97357.84;10334939;28;20073;-57
2022/08/28 11:01:10;;;;;;;12.57;6.05;;;;;;;31.22;28.49;97367.59;10337080;28;20077;-57
2022/08/28 11:06:30;;;;;;;14.68;6.40;;;;;;;31.35;28.25;97353.88;10337150;28;20056;-57
2022/08/28 11:11:47;;;;;;;11.40;5.53;;;;;;;31.47;28.57;97355.41;10336417;28;20068;-56
2022/08/28 11:16:48;;;;;;;10.97;6.20;;;;;;;31.70;28.49;97352.47;10337199;28;20079;-56
2022/08/28 11:21:53;;;;;;;11.38;6.22;;;;;;;31.79;28.48;97351.59;10333874;28;20492;-56
2022/08/28 11:27:22;;;;;;;14.35;6.03;;;;;;;31.64;28.21;97347.66;10336339;28;20087;-56
2022/08/28 11:32:51;;;;;;;14.73;5.80;;;;;;;31.48;29.05;97348.25;10336645;28;20554;-56
2022/08/28 11:37:53;;;;;;;11.13;6.70;;;;;;;31.34;28.58;97345.00;10328979;28;20095;-56
2022/08/28 11:43:15;;;;;;;12.32;6.28;;;;;;;31.47;29.54;97336.66;10329370;28;20491;-56
2022/08/28 11:48:32;;;;;;;12.10;6.00;;;;;;;31.53;29.07;97336.13;10326406;28;20124;-57
2022/08/28 11:53:51;;;;;;;14.55;5.63;;;;;;;31.66;28.11;97337.66;10324361;28;20596;-57
2022/08/28 11:59:24;;;;;;;9.63;6.25;;;;;;;31.85;28.59;97328.69;10323400;28;20136;-57
2022/08/28 12:04:23;;;;;;;15.52;6.28;;;;;;;31.87;28.14;97335.59;10324743;28;20508;-57
2022/08/28 12:09:25;;;;;;;9.48;5.75;;;;;;;31.77;28.33;97330.28;10328360;28;20068;-57
2022/08/28 12:14:24;;;;;;;10.70;5.82;;;;;;;31.68;28.44;97332.97;10329173;28;20080;-57
2022/08/28 12:19:27;;;;;;;15.05;5.95;;;;;;;31.72;29.26;97324.50;10328540;28;20508;-57
2022/08/28 12:24:27;;;;;;;9.80;5.85;;;;;;;31.69;28.16;97319.44;10321665;28;20081;-57
2022/08/28 12:29:31;;;;;;;11.98;5.75;;;;;;;31.89;28.68;97319.38;10337653;28;20076;-57
2022/08/28 12:34:48;;;;;;;10.32;5.90;;;;;;;31.95;28.02;97319.63;10324503;28;20088;-56
2022/08/28 12:39:48;;;;;;;14.48;6.63;;;;;;;32.26;28.14;97322.09;10321058;28;20481;-56
2022/08/28 12:44:47;;;;;;;11.60;6.10;;;;;;;32.19;27.61;97321.00;10321765;28;20096;-56
2022/08/28 12:49:47;;;;;;;9.05;5.57;;;;;;;32.12;26.97;97330.63;10321372;28;20125;-56
2022/08/28 12:54:48;;;;;;;11.63;5.95;;;;;;;32.23;26.93;97327.75;10323935;28;20076;-56
2022/08/28 13:00:07;;;;;;;18.00;6.20;;;;;;;32.45;26.49;97326.50;10297517;28;20128;-56
2022/08/28 13:05:21;;;;;;;11.15;5.63;;;;;;;32.61;26.19;97315.16;10326124;28;20475;-56
2022/08/28 13:10:30;;;;;;;11.20;5.45;;;;;;;32.89;26.39;97317.81;10326233;28;20523;-56
2022/08/28 13:15:41;;;;;;;16.27;6.40;;;;;;;33.21;27.55;97317.31;10323117;28;20132;-57
2022/08/28 13:20:40;;;;;;;16.70;5.88;;;;;;;33.52;25.39;97319.56;10322180;28;20077;-56
2022/08/28 13:25:39;;;;;;;16.05;5.85;;;;;;;33.68;25.49;97306.25;10325182;28;20029;-56
2022/08/28 13:30:38;;;;;;;10.80;5.22;;;;;;;33.43;25.57;97315.97;10327332;28;20029;-57
2022/08/28 13:35:39;;;;;;;11.85;6.35;;;;;;;33.05;26.30;97313.41;10331905;28;20079;-57
2022/08/28 13:40:41;;;;;;;14.15;6.13;;;;;;;32.93;25.80;97311.13;10334193;28;20092;-56
2022/08/28 13:45:43;;;;;;;12.77;5.72;;;;;;;32.82;26.36;97304.13;10334613;28;20088;-57
2022/08/28 13:51:07;;;;;;;13.98;5.47;;;;;;;32.90;27.08;97308.72;10334358;28;20060;-57
2022/08/28 13:56:06;;;;;;;10.10;5.32;;;;;;;32.47;27.71;97304.88;10337017;28;20079;-55
2022/08/28 14:01:05;;;;;;;9.95;5.75;;;;;;;32.29;28.55;97307.53;10336510;28;20088;-56
2022/08/28 14:06:29;;;;;;;11.43;5.47;;;;;;;32.36;28.55;97300.56;10336357;28;20456;-56
2022/08/28 14:11:28;;;;;;;11.98;6.22;;;;;;;32.21;28.86;97306.44;10335543;28;20073;-56
2022/08/28 14:16:27;;;;;;;13.05;5.47;;;;;;;32.17;28.63;97304.19;10336372;28;20788;-56
2022/08/28 14:21:26;;;;;;;13.63;6.13;;;;;;;32.29;29.54;97300.31;10331103;28;20827;-56
2022/08/28 14:26:25;;;;;;;13.90;6.22;;;;;;;32.28;28.62;97298.63;10335921;28;20408;-56
2022/08/28 14:31:25;;;;;;;12.27;5.88;;;;;;;32.25;28.01;97306.13;10335489;28;20089;-56
2022/08/28 14:36:26;;;;;;;11.05;5.78;;;;;;;32.22;28.17;97299.22;10335007;28;20129;-55
2022/08/28 14:41:26;;;;;;;13.93;6.65;;;;;;;32.35;28.57;97297.03;10335757;28;20080;-56
2022/08/28 14:46:28;;;;;;;15.60;6.40;;;;;;;32.13;27.75;97286.69;10332808;28;20084;-55
2022/08/28 14:51:29;;;;;;;11.43;5.93;;;;;;;32.32;29.62;97297.34;10329207;28;20049;-55
2022/08/28 14:56:30;;;;;;;13.38;6.32;;;;;;;32.17;29.86;97291.59;10331311;28;20103;-55
2022/08/28 15:01:32;;;;;;;14.25;6.88;;;;;;;31.96;29.36;97299.84;10331031;28;20092;-56
2022/08/28 15:06:31;;;;;;;12.05;6.43;;;;;;;31.95;29.70;97281.22;10331076;28;20084;-55
2022/08/28 15:11:30;;;;;;;14.80;7.53;;;;;;;31.87;30.32;97292.69;10331168;28;20072;-56
2022/08/28 15:16:32;;;;;;;12.45;7.22;;;;;;;31.80;30.68;97288.88;10330118;28;20033;-56
2022/08/28 15:21:37;;;;;;;15.23;7.57;;;;;;;31.70;31.16;97285.41;10330783;28;20075;-56
2022/08/28 15:26:36;;;;;;;12.02;6.55;;;;;;;31.63;31.49;97286.97;10327999;28;20080;-57
2022/08/28 15:31:39;;;;;;;10.85;6.30;;;;;;;31.50;31.80;97285.47;10329955;28;20087;-56
2022/08/28 15:36:39;;;;;;;11.43;6.35;;;;;;;31.51;31.47;97281.78;10329193;28;20515;-56
2022/08/28 15:41:38;;;;;;;8.23;6.30;;;;;;;31.44;30.98;97287.84;10330807;28;20083;-56
2022/08/28 15:46:37;;;;;;;17.38;7.03;;;;;;;31.28;31.48;97278.53;10328487;28;20550;-56
2022/08/28 15:51:36;;;;;;;10.95;5.75;;;;;;;31.28;32.19;97288.41;10329430;28;20538;-57
2022/08/28 15:56:35;;;;;;;14.95;6.43;;;;;;;31.05;32.35;97283.34;10329043;28;20088;-56
2022/08/28 16:01:34;;;;;;;16.38;7.13;;;;;;;30.94;32.37;97296.88;10328919;28;20033;-56
2022/08/28 16:06:34;;;;;;;19.35;7.20;;;;;;;30.79;32.70;97295.59;10328763;28;20040;-56
2022/08/28 16:11:34;;;;;;;12.50;6.70;;;;;;;30.68;33.56;97294.75;10326548;28;20073;-56
2022/08/28 16:16:33;;;;;;;11.68;7.03;;;;;;;30.62;33.76;97302.47;10320972;28;20467;-56
2022/08/28 16:21:32;;;;;;;13.02;6.60;;;;;;;30.51;34.31;97308.78;10325970;28;20117;-56
2022/08/28 16:26:31;;;;;;;13.90;7.20;;;;;;;30.34;35.41;97310.28;10327380;28;20091;-56
2022/08/28 16:31:30;;;;;;;14.20;7.28;;;;;;;30.17;36.21;97319.78;10328681;28;20037;-56
2022/08/28 16:36:29;;;;;;;15.15;7.50;;;;;;;29.94;37.08;97320.97;10328925;28;20069;-56
2022/08/28 16:41:28;;;;;;;12.48;7.88;;;;;;;29.64;37.13;97322.59;10314197;28;20538;-55
2022/08/28 16:46:27;;;;;;;14.85;8.00;;;;;;;29.29;38.09;97321.94;10313259;28;20585;-55
2022/08/28 16:51:28;;;;;;;15.65;9.15;;;;;;;28.99;38.73;97328.00;10326193;28;20065;-56
2022/08/28 16:56:27;;;;;;;13.07;8.18;;;;;;;28.69;40.02;97330.50;10317412;28;20499;-56
2022/08/28 17:01:26;;;;;;;14.02;9.13;;;;;;;28.39;40.56;97335.50;10317289;28;20061;-56
2022/08/28 17:06:29;;;;;;;18.02;9.02;;;;;;;28.10;42.09;97334.31;10324674;28;20064;-56
2022/08/28 17:11:29;;;;;;;19.25;10.65;;;;;;;27.73;42.03;97348.69;10329101;28;20144;-56
2022/08/28 17:16:30;;;;;;;20.02;10.68;;;;;;;27.46;42.49;97353.44;10334397;28;20077;-55
2022/08/28 17:26:46;;;;;;;16.17;9.70;;;;;;;26.90;44.05;97370.03;10334581;28;20064;-57
2022/08/28 17:31:45;;;;;;;16.33;7.82;;;;;;;26.61;44.50;97382.78;10335369;28;20018;-56
2022/08/28 17:36:44;;;;;;;12.40;8.43;;;;;;;26.29;45.23;97389.44;10335063;28;20499;-56
2022/08/28 17:41:43;;;;;;;12.18;7.30;;;;;;;26.09;45.71;97390.81;10333995;28;20021;-56
2022/08/28 17:46:42;;;;;;;13.45;7.30;;;;;;;25.87;46.21;97395.91;10303905;28;20081;-56
2022/08/28 17:51:41;;;;;;;11.52;7.70;;;;;;;25.69;46.24;97406.84;10324780;28;20068;-56
2022/08/28 17:56:41;;;;;;;15.88;8.60;;;;;;;25.52;46.86;97415.91;10333392;28;20035;-56
2022/08/28 18:01:41;;;;;;;14.40;7.70;;;;;;;25.33;47.02;97418.94;10332587;28;20060;-57
2022/08/28 18:06:40;;;;;;;13.10;7.95;;;;;;;25.11;47.13;97423.97;10302991;28;20072;-56
2022/08/28 18:11:40;;;;;;;13.30;7.75;;;;;;;24.89;47.61;97427.16;10317443;28;20025;-56
2022/08/28 18:16:39;;;;;;;10.98;7.80;;;;;;;24.73;47.81;97445.84;10332042;28;20069;-56
2022/08/28 18:21:39;;;;;;;13.85;7.95;;;;;;;24.57;48.58;97450.41;10331575;28;20018;-56
2022/08/28 18:26:41;;;;;;;15.80;8.63;;;;;;;24.42;49.12;97446.91;10333525;28;20075;-56
2022/08/28 18:31:41;;;;;;;15.18;8.75;;;;;;;24.24;49.66;97455.06;10332436;28;20080;-55
2022/08/28 18:36:40;;;;;;;14.30;7.40;;;;;;;24.13;50.23;97457.47;10331368;28;20136;-56
2022/08/28 18:41:40;;;;;;;12.68;8.35;;;;;;;24.02;50.62;97466.06;10330050;28;20143;-56
2022/08/28 18:46:39;;;;;;;13.32;7.72;;;;;;;23.88;50.98;97460.72;10331773;28;20491;-57
2022/08/28 18:51:40;;;;;;;19.13;8.50;;;;;;;23.72;50.98;97460.78;10331087;28;20057;-57
2022/08/28 18:56:39;;;;;;;14.25;8.50;;;;;;;23.70;50.78;97472.41;10331851;28;20084;-57
2022/08/28 19:01:38;;;;;;;14.88;8.95;;;;;;;23.55;52.03;97472.38;10332102;28;20499;-57
2022/08/28 19:06:39;;;;;;;15.27;9.07;;;;;;;23.49;52.77;97478.03;10330692;28;20402;-57
2022/08/28 19:11:38;;;;;;;17.33;10.32;;;;;;;23.34;54.79;97492.13;10330499;28;20065;-57
2022/08/28 19:16:37;;;;;;;18.38;10.35;;;;;;;23.28;54.93;97500.41;10330114;28;20112;-57
2022/08/28 19:21:36;;;;;;;17.33;10.68;;;;;;;23.18;55.30;97506.22;10329940;28;20081;-57
2022/08/28 19:26:37;;;;;;;16.67;11.02;;;;;;;23.06;56.50;97512.19;10330243;28;20388;-56
2022/08/28 19:31:36;;;;;;;30.05;17.40;;;;;;;22.91;57.46;97518.34;10329979;28;20063;-57
2022/08/28 19:36:35;;;;;;;32.70;18.83;;;;;;;22.85;57.81;97529.25;10329970;28;20080;-57
2022/08/28 19:41:35;;;;;;;34.30;20.42;;;;;;;22.70;59.26;97523.81;10330272;28;20080;-57
2022/08/28 19:46:36;;;;;;;31.83;19.45;;;;;;;22.60;60.70;97531.41;10326742;28;20087;-57
2022/08/28 19:51:37;;;;;;;20.20;13.35;;;;;;;22.42;61.38;97526.22;10329897;28;20121;-57
2022/08/28 19:56:36;;;;;;;18.42;11.65;;;;;;;22.32;61.90;97541.69;10329209;28;20068;-57
2022/08/28 20:01:39;;;;;;;17.95;10.70;;;;;;;22.16;62.53;97531.94;10329890;28;20069;-57
2022/08/28 20:06:38;;;;;;;19.65;10.50;;;;;;;22.06;63.03;97535.09;10329431;28;20499;-56
2022/08/28 20:11:37;;;;;;;15.48;10.48;;;;;;;21.94;63.81;97536.56;10328565;28;20541;-57
2022/08/28 20:16:39;;;;;;;17.67;10.27;;;;;;;21.86;64.49;97544.88;10326754;28;20065;-57
2022/08/28 20:21:42;;;;;;;22.10;11.13;;;;;;;21.74;65.33;97548.13;10327968;28;20502;-57
2022/08/28 20:26:42;;;;;;;17.23;11.05;;;;;;;21.64;65.43;97549.50;10328396;28;20090;-57
2022/08/28 20:31:44;;;;;;;20.50;11.10;;;;;;;21.58;66.20;97547.16;10328749;28;20590;-57
2022/08/28 20:36:43;;;;;;;19.73;12.00;;;;;;;21.50;66.89;97553.69;10328255;28;20080;-57
2022/08/28 20:41:43;;;;;;;20.35;12.52;;;;;;;21.43;68.44;97560.19;10328718;28;20384;-56
2022/08/28 20:46:42;;;;;;;18.67;12.15;;;;;;;21.38;68.95;97562.16;10335026;28;20085;-57
2022/08/28 20:51:54;;;;;;;18.63;12.77;;;;;;;21.37;68.80;97570.19;10335221;28;20076;-57
2022/08/28 20:56:56;;;;;;;24.65;16.40;;;;;;;21.35;69.05;97570.25;10335797;28;20077;-57
2022/08/28 21:01:55;;;;;;;29.10;16.67;;;;;;;21.33;69.38;97572.94;10336614;28;20084;-57
2022/08/28 21:06:54;;;;;;;34.20;21.42;;;;;;;21.23;70.58;97574.31;10336070;28;20111;-56
2022/08/28 21:11:53;;;;;;;31.23;18.58;;;;;;;21.12;71.55;97576.56;10335304;28;20068;-57
2022/08/28 21:16:52;;;;;;;38.10;21.33;;;;;;;21.05;72.61;97570.72;10334930;28;20044;-57
2022/08/28 21:21:51;;;;;;;22.50;15.85;;;;;;;20.92;72.54;97572.22;10323288;28;20117;-57
2022/08/28 21:26:51;;;;;;;21.67;13.15;;;;;;;20.87;72.44;97563.66;10317927;28;20053;-57
2022/08/28 21:31:51;;;;;;;22.20;13.57;;;;;;;20.79;72.10;97561.34;10330130;28;20077;-57
2022/08/28 21:36:50;;;;;;;18.95;13.60;;;;;;;20.76;72.11;97565.94;10329840;28;20103;-56
2022/08/28 21:41:49;;;;;;;22.30;13.00;;;;;;;20.68;72.02;97569.78;10334180;28;20121;-57
2022/08/28 21:46:48;;;;;;;18.02;12.95;;;;;;;20.59;72.26;97566.69;10321984;28;20438;-57
2022/08/28 21:51:47;;;;;;;20.33;14.07;;;;;;;20.48;72.72;97561.88;10327342;28;20411;-57
2022/08/28 21:56:46;;;;;;;25.67;13.70;;;;;;;20.39;73.50;97567.53;10329681;28;20142;-57
2022/08/28 22:01:45;;;;;;;24.10;16.55;;;;;;;20.24;75.32;97564.63;10322626;28;20107;-57
2022/08/28 22:06:44;;;;;;;24.90;15.23;;;;;;;20.15;76.52;97564.16;10328145;28;20040;-56
2022/08/28 22:11:43;;;;;;;21.38;15.57;;;;;;;20.05;76.97;97561.91;10331754;28;20033;-57
2022/08/28 22:16:43;;;;;;;22.23;15.18;;;;;;;20.00;77.30;97568.28;10330433;28;20459;-57
2022/08/28 22:26:59;;;;;;;20.38;13.52;;;;;;;19.84;78.07;97563.69;10326245;28;20065;-57
2022/08/28 22:31:59;;;;;;;22.13;14.48;;;;;;;19.80;78.37;97574.41;10326729;28;20321;-57
2022/08/28 22:36:58;;;;;;;21.33;14.68;;;;;;;19.74;78.75;97567.59;10328767;28;20097;-57
2022/08/28 22:41:57;;;;;;;20.25;14.32;;;;;;;19.68;79.17;97572.28;10331278;28;20081;-57
2022/08/28 22:46:56;;;;;;;16.92;13.85;;;;;;;19.63;79.35;97573.31;10331844;28;20041;-57
2022/08/28 22:51:55;;;;;;;22.60;14.52;;;;;;;19.60;79.67;97578.72;10331587;28;20072;-56
2022/08/28 22:56:54;;;;;;;17.58;13.88;;;;;;;19.57;79.62;97585.84;10330699;28;20030;-57
2022/08/28 23:01:53;;;;;;;19.73;14.02;;;;;;;19.52;79.42;97579.88;10331630;28;20071;-57
2022/08/28 23:06:52;;;;;;;21.92;13.27;;;;;;;19.47;79.35;97577.44;10330524;28;20069;-56
2022/08/28 23:11:52;;;;;;;18.08;14.20;;;;;;;19.41;79.13;97573.25;10331015;28;20068;-57
2022/08/28 23:16:53;;;;;;;18.15;14.27;;;;;;;19.38;79.25;97567.28;10330984;28;20578;-57
2022/08/28 23:21:52;;;;;;;20.35;14.18;;;;;;;19.34;79.24;97571.78;10331337;28;20065;-56